Time;durP1;ratioP1;P1;durP2;ratioP2;P2;SDS_P1;SDS_P2;PMS_P1;PMS_P2;Temp;Humidity;BMP_temperature;BMP_pressure;BME280_temperature;BME280_humidity;BME280_pressure;Samples;Min_cycle;Max_cycle;Signal;HPM_P1;HPM_P2
2021/05/01 00:00:41;;;;;;;93.25;51.13;;;;;;;6.36;73.71;100425.95;1695524;84;21184;-71
2021/05/01 00:03:09;;;;;;;90.25;52.03;;;;;;;6.37;73.74;100422.31;1695000;84;21172;-71
2021/05/01 00:05:36;;;;;;;96.92;54.98;;;;;;;6.38;73.78;100416.05;1695366;84;21621;-71
2021/05/01 00:08:03;;;;;;;93.95;53.13;;;;;;;6.38;73.80;100416.05;1695330;84;21137;-71
2021/05/01 00:10:29;;;;;;;96.95;53.68;;;;;;;6.43;73.82;100416.46;1695468;84;21199;-71
2021/05/01 00:12:56;;;;;;;94.77;52.95;;;;;;;6.47;73.84;100423.12;1695226;84;21136;-71
2021/05/01 00:15:22;;;;;;;87.82;53.13;;;;;;;6.50;73.87;100428.16;1694780;84;21206;-71
2021/05/01 00:17:48;;;;;;;101.42;53.83;;;;;;;6.46;73.87;100425.45;1695543;84;21149;-71
2021/05/01 00:20:15;;;;;;;99.62;54.98;;;;;;;6.47;73.90;100425.77;1695044;84;21177;-72
2021/05/01 00:22:41;;;;;;;100.95;57.60;;;;;;;6.52;73.92;100431.97;1695292;84;21199;-71
2021/05/01 00:25:08;;;;;;;106.65;58.20;;;;;;;6.52;73.95;100436.78;1695302;84;21127;-71
2021/05/01 00:27:35;;;;;;;109.72;62.53;;;;;;;6.46;73.98;100440.02;1695213;84;22055;-71
2021/05/01 00:30:02;;;;;;;113.45;64.15;;;;;;;6.44;74.00;100422.08;1695278;84;21167;-71
2021/05/01 00:32:28;;;;;;;139.10;73.07;;;;;;;6.35;73.99;100416.33;1695349;84;21157;-72
2021/05/01 00:34:54;;;;;;;144.13;71.15;;;;;;;6.31;74.05;100416.75;1695404;84;21169;-72
2021/05/01 00:37:20;;;;;;;142.75;75.05;;;;;;;6.28;74.10;100419.69;1695232;84;21168;-71
2021/05/01 00:39:47;;;;;;;143.87;75.65;;;;;;;6.28;74.16;100433.77;1695392;84;21228;-71
2021/05/01 00:42:13;;;;;;;142.77;75.35;;;;;;;6.29;74.21;100432.80;1695101;83;21152;-71
2021/05/01 00:44:40;;;;;;;107.90;58.48;;;;;;;6.29;74.25;100418.23;1695234;83;21148;-72
2021/05/01 00:47:06;;;;;;;110.65;58.90;;;;;;;6.31;74.25;100412.29;1695262;84;21168;-72
2021/05/01 00:49:33;;;;;;;112.28;62.00;;;;;;;6.30;74.28;100407.97;1695420;84;21149;-72
2021/05/01 00:51:59;;;;;;;107.12;60.10;;;;;;;6.28;74.32;100401.98;1695306;84;21199;-72
2021/05/01 00:54:26;;;;;;;114.67;63.87;;;;;;;6.24;74.35;100394.46;1695222;84;21164;-72
2021/05/01 00:56:52;;;;;;;100.58;55.15;;;;;;;6.20;74.39;100391.27;1695316;84;21570;-72
2021/05/01 00:59:18;;;;;;;114.30;60.20;;;;;;;6.17;74.42;100383.61;1694841;84;21569;-71
2021/05/01 01:04:28;;;;;;;99.97;56.08;;;;;;;6.19;74.51;100393.59;1811003;78;22556;-69
2021/05/01 01:06:55;;;;;;;119.57;62.90;;;;;;;6.14;74.55;100414.34;1797255;79;21084;-68
2021/05/01 01:09:21;;;;;;;119.47;64.30;;;;;;;6.10;74.57;100414.27;1796966;79;21776;-71
2021/05/01 01:11:47;;;;;;;110.83;61.85;;;;;;;6.09;74.60;100420.53;1797166;79;20945;-71
2021/05/01 01:14:14;;;;;;;107.03;60.95;;;;;;;6.16;74.63;100426.94;1797024;79;21124;-71
2021/05/01 01:16:44;;;;;;;111.62;61.25;;;;;;;6.22;74.66;100426.39;1797193;79;21167;-71
2021/05/01 01:19:09;;;;;;;111.95;61.37;;;;;;;6.29;74.70;100434.13;1797090;79;21179;-71
2021/05/01 01:21:45;;;;;;;116.40;60.75;;;;;;;6.36;74.71;100433.91;1797333;79;21131;-71
2021/05/01 01:24:12;;;;;;;119.40;62.55;;;;;;;6.43;74.76;100435.00;1797122;79;21168;-71
2021/05/01 01:26:39;;;;;;;145.07;70.28;;;;;;;6.45;74.75;100434.36;1797024;79;21040;-71
2021/05/01 01:29:06;;;;;;;101.20;53.52;;;;;;;6.43;74.77;100435.00;1797190;79;21085;-71
2021/05/01 01:31:32;;;;;;;119.62;63.40;;;;;;;6.44;74.81;100441.95;1797014;79;21171;-71
2021/05/01 01:34:00;;;;;;;95.77;52.65;;;;;;;6.41;74.86;100440.91;1797046;79;21270;-71
2021/05/01 01:36:26;;;;;;;96.57;54.08;;;;;;;6.41;74.92;100436.09;1797191;79;21130;-71
2021/05/01 01:38:53;;;;;;;76.40;45.92;;;;;;;6.46;74.89;100429.41;1797170;79;21635;-71
2021/05/01 01:41:19;;;;;;;80.77;47.83;;;;;;;6.44;74.88;100420.76;1797200;79;21168;-71
2021/05/01 01:43:46;;;;;;;80.60;45.00;;;;;;;6.38;74.92;100408.09;1797066;79;21143;-71
2021/05/01 01:46:13;;;;;;;76.67;43.75;;;;;;;6.34;74.98;100409.36;1797321;79;21200;-71
2021/05/01 01:48:39;;;;;;;68.97;40.95;;;;;;;6.33;75.04;100409.00;1796981;79;21170;-70
2021/05/01 01:51:05;;;;;;;67.12;37.98;;;;;;;6.33;75.05;100410.32;1797235;79;21127;-71
2021/05/01 01:53:31;;;;;;;61.68;36.05;;;;;;;6.32;75.06;100404.70;1775324;79;21138;-71
2021/05/01 01:55:58;;;;;;;56.50;33.73;;;;;;;6.29;75.11;100402.34;1765731;81;21565;-71
2021/05/01 01:58:24;;;;;;;53.87;32.70;;;;;;;6.28;75.13;100412.58;1765585;81;22178;-71
2021/05/01 02:00:51;;;;;;;56.00;34.25;;;;;;;6.28;75.16;100415.23;1765711;81;21143;-71
2021/05/01 02:03:17;;;;;;;55.20;33.02;;;;;;;6.30;75.17;100407.97;1762625;79;21163;-71
2021/05/01 02:05:47;;;;;;;52.15;31.65;;;;;;;6.32;75.22;100403.37;1757172;81;21186;-71
2021/05/01 02:08:13;;;;;;;49.25;29.87;;;;;;;6.33;75.25;100411.64;1757652;81;21159;-71
2021/05/01 02:10:40;;;;;;;45.78;28.50;;;;;;;6.36;75.28;100425.12;1757305;81;21194;-71
2021/05/01 02:13:07;;;;;;;46.98;29.18;;;;;;;6.39;75.32;100428.31;1757270;81;21726;-71
2021/05/01 02:15:33;;;;;;;49.65;29.80;;;;;;;6.44;75.34;100419.92;1756886;81;21155;-71
2021/05/01 02:18:01;;;;;;;50.67;30.02;;;;;;;6.46;75.36;100417.50;1756870;81;21186;-71
2021/05/01 02:20:36;;;;;;;44.65;28.42;;;;;;;6.45;75.41;100402.58;1756993;81;21167;-71
2021/05/01 02:23:03;;;;;;;45.40;27.25;;;;;;;6.43;75.43;100397.92;1756743;81;21257;-71
2021/05/01 02:25:30;;;;;;;44.20;28.57;;;;;;;6.40;75.47;100387.58;1756818;81;21187;-71
2021/05/01 02:27:56;;;;;;;40.85;26.12;;;;;;;6.40;75.53;100390.23;1756699;81;21173;-71
2021/05/01 02:30:25;;;;;;;44.77;27.95;;;;;;;6.43;75.54;100388.65;1756941;81;21177;-71
2021/05/01 02:32:52;;;;;;;44.93;27.85;;;;;;;6.43;75.57;100392.63;1756903;81;21549;-71
2021/05/01 02:35:21;;;;;;;44.08;27.80;;;;;;;6.44;75.62;100390.78;1756943;81;21236;-71
2021/05/01 02:37:47;;;;;;;43.50;27.55;;;;;;;6.48;75.66;100393.02;1756942;81;21568;-71
2021/05/01 02:40:14;;;;;;;40.10;25.97;;;;;;;6.54;75.70;100392.42;1756670;81;21104;-71
2021/05/01 02:42:41;;;;;;;40.60;26.15;;;;;;;6.55;75.71;100395.91;1756878;81;21179;-71
2021/05/01 02:45:10;;;;;;;42.05;27.60;;;;;;;6.54;75.74;100396.91;1756758;81;21151;-71
2021/05/01 02:47:36;;;;;;;47.55;28.25;;;;;;;6.54;75.77;100392.42;1756657;81;21204;-71
2021/05/01 02:50:05;;;;;;;42.93;27.58;;;;;;;6.56;75.81;100391.45;1756767;81;21155;-71
2021/05/01 02:52:32;;;;;;;43.17;27.75;;;;;;;6.55;75.83;100387.97;1756794;80;21127;-71
2021/05/01 02:54:58;;;;;;;40.83;26.93;;;;;;;6.57;75.86;100378.08;1756932;81;21160;-71
2021/05/01 02:57:24;;;;;;;43.38;27.40;;;;;;;6.59;75.89;100365.99;1756835;81;21577;-71
2021/05/01 02:59:51;;;;;;;41.83;27.15;;;;;;;6.58;75.92;100364.34;1756970;81;21203;-71
2021/05/01 03:02:17;;;;;;;46.20;27.62;;;;;;;6.59;75.95;100375.27;1756401;81;21137;-71
2021/05/01 03:04:43;;;;;;;49.48;27.67;;;;;;;6.62;75.98;100377.62;1756939;80;21131;-71
2021/05/01 03:07:10;;;;;;;43.87;27.50;;;;;;;6.62;75.99;100373.64;1756743;81;21621;-71
2021/05/01 03:09:36;;;;;;;53.75;28.45;;;;;;;6.63;76.01;100377.48;1756920;81;21123;-71
2021/05/01 03:12:04;;;;;;;42.40;26.45;;;;;;;6.63;76.04;100374.00;1756802;81;21195;-71
2021/05/01 03:14:30;;;;;;;41.18;26.42;;;;;;;6.60;76.05;100364.53;1756726;81;21144;-71
2021/05/01 03:16:57;;;;;;;43.15;24.43;;;;;;;6.63;76.09;100363.40;1756920;81;21199;-71
2021/05/01 03:19:23;;;;;;;44.50;27.35;;;;;;;6.64;76.11;100369.05;1756657;81;21174;-71
2021/05/01 03:21:50;;;;;;;40.92;27.17;;;;;;;6.63;76.13;100362.91;1756841;81;21175;-71
2021/05/01 03:24:16;;;;;;;43.50;28.02;;;;;;;6.68;76.13;100360.67;1756719;81;22121;-71
2021/05/01 03:26:42;;;;;;;41.70;27.73;;;;;;;6.68;76.18;100359.84;1756692;81;21131;-71
2021/05/01 03:29:09;;;;;;;44.98;28.55;;;;;;;6.69;76.20;100362.81;1756830;81;21186;-71
2021/05/01 03:31:35;;;;;;;42.00;27.35;;;;;;;6.67;76.23;100364.78;1756467;81;21124;-71
2021/05/01 03:34:01;;;;;;;43.40;28.55;;;;;;;6.65;76.26;100364.11;1756986;81;21104;-71
2021/05/01 03:36:28;;;;;;;45.28;29.50;;;;;;;6.69;76.27;100376.89;1756734;81;21145;-71
2021/05/01 03:38:54;;;;;;;42.58;28.57;;;;;;;6.74;76.29;100391.05;1756822;81;21139;-71
2021/05/01 03:41:20;;;;;;;44.20;29.75;;;;;;;6.72;76.30;100400.97;1756627;81;21143;-71
2021/05/01 03:43:47;;;;;;;46.08;28.60;;;;;;;6.72;76.33;100395.16;1756801;81;21123;-71
2021/05/01 03:46:13;;;;;;;45.30;28.80;;;;;;;6.76;76.31;100388.59;1756727;81;21151;-71
2021/05/01 03:48:39;;;;;;;43.83;28.12;;;;;;;6.73;76.29;100388.88;1756734;81;21667;-71
2021/05/01 03:51:06;;;;;;;82.90;38.45;;;;;;;6.69;76.32;100376.06;1756886;81;21072;-71
2021/05/01 03:53:32;;;;;;;71.05;37.30;;;;;;;6.67;76.36;100378.03;1756528;80;21119;-71
2021/05/01 03:55:59;;;;;;;57.30;34.50;;;;;;;6.66;76.39;100380.33;1756731;81;21656;-71
2021/05/01 03:58:25;;;;;;;46.28;29.63;;;;;;;6.67;76.41;100376.70;1756823;81;21124;-71
2021/05/01 04:00:51;;;;;;;46.90;29.72;;;;;;;6.68;76.45;100383.69;1756904;81;21285;-71
2021/05/01 04:03:18;;;;;;;46.85;29.40;;;;;;;6.70;76.45;100387.02;1760162;80;21176;-71
2021/05/01 04:05:44;;;;;;;43.40;29.85;;;;;;;6.72;76.47;100393.83;1789685;80;21569;-71
2021/05/01 04:08:11;;;;;;;42.58;28.52;;;;;;;6.75;76.50;100398.03;1789857;80;21116;-71
2021/05/01 04:10:37;;;;;;;45.25;29.57;;;;;;;6.76;76.51;100402.33;1789195;80;21552;-71
2021/05/01 04:13:03;;;;;;;47.23;30.32;;;;;;;6.78;76.52;100388.45;1789784;79;22375;-71
2021/05/01 04:15:30;;;;;;;45.60;29.90;;;;;;;6.77;76.52;100384.12;1789459;79;21568;-71
2021/05/01 04:17:56;;;;;;;69.25;38.98;;;;;;;6.76;76.53;100391.72;1789757;80;21144;-71
2021/05/01 04:20:22;;;;;;;49.13;32.60;;;;;;;6.77;76.57;100399.55;1789511;80;21119;-71
2021/05/01 04:22:49;;;;;;;48.78;30.80;;;;;;;6.83;76.59;100399.44;1789607;80;21572;-71
2021/05/01 04:25:15;;;;;;;49.03;32.23;;;;;;;6.90;76.58;100411.13;1789742;79;21131;-71
2021/05/01 04:27:42;;;;;;;48.23;31.75;;;;;;;6.93;76.58;100405.55;1789302;80;21111;-71
2021/05/01 04:30:09;;;;;;;43.60;30.00;;;;;;;6.91;76.59;100401.72;1789830;80;21119;-71
2021/05/01 04:32:35;;;;;;;46.65;31.25;;;;;;;6.87;76.59;100409.61;1789519;79;21119;-71
2021/05/01 04:35:05;;;;;;;44.25;29.40;;;;;;;6.84;76.61;100401.95;1789627;80;21171;-71
2021/05/01 04:37:31;;;;;;;;;;;;;;;6.81;76.63;100396.11;1792288;79;22209;-71
2021/05/01 04:39:58;;;;;;;52.55;33.05;;;;;;;6.78;76.67;100391.94;1789505;80;20632;-71
2021/05/01 04:42:24;;;;;;;46.73;30.62;;;;;;;6.77;76.68;100390.75;1789568;79;21525;-71
2021/05/01 04:44:50;;;;;;;44.15;29.02;;;;;;;6.77;76.72;100384.12;1789594;80;21513;-71
2021/05/01 04:47:17;;;;;;;48.00;29.90;;;;;;;6.77;76.71;100378.83;1789763;80;21128;-71
2021/05/01 04:49:43;;;;;;;45.30;32.15;;;;;;;6.77;76.74;100377.50;1789341;80;21506;-71
2021/05/01 04:52:09;;;;;;;49.00;33.30;;;;;;;6.78;76.77;100391.11;1789648;78;21151;-71
2021/05/01 04:54:36;;;;;;;48.05;32.73;;;;;;;6.77;76.76;100397.38;1789489;80;21123;-71
2021/05/01 04:57:03;;;;;;;49.13;31.68;;;;;;;6.81;76.80;100398.76;1789644;80;21087;-71
2021/05/01 04:59:29;;;;;;;51.40;31.20;;;;;;;6.82;76.82;100403.09;1789543;80;21100;-71
2021/05/01 05:01:55;;;;;;;49.77;32.28;;;;;;;6.82;76.82;100397.79;1789686;80;21192;-71
2021/05/01 05:04:22;;;;;;;49.18;32.25;;;;;;;6.83;76.85;100395.45;1776092;79;21127;-71
2021/05/01 05:06:48;;;;;;;52.50;36.58;;;;;;;6.83;76.86;100395.45;1756758;81;21143;-71
2021/05/01 05:09:14;;;;;;;48.02;32.65;;;;;;;6.84;76.87;100397.14;1756840;81;21163;-71
2021/05/01 05:11:41;;;;;;;69.92;50.15;;;;;;;6.83;76.92;100404.73;1756623;81;21130;-71
2021/05/01 05:14:07;;;;;;;52.03;35.78;;;;;;;6.81;76.92;100406.71;1756775;81;21192;-71
2021/05/01 05:16:33;;;;;;;55.05;37.75;;;;;;;6.84;76.96;100407.74;1756669;81;21201;-71
2021/05/01 05:18:59;;;;;;;51.92;34.27;;;;;;;6.86;76.96;100407.93;1756846;81;21127;-71
2021/05/01 05:21:25;;;;;;;55.63;34.23;;;;;;;6.88;76.96;100418.41;1756653;81;21091;-71
2021/05/01 05:23:52;;;;;;;58.45;39.83;;;;;;;6.87;76.96;100424.67;1756477;81;21203;-71
2021/05/01 05:26:18;;;;;;;53.08;33.45;;;;;;;6.86;76.98;100420.37;1756755;81;21366;-71
2021/05/01 05:28:44;;;;;;;50.25;32.73;;;;;;;6.89;77.00;100426.22;1756224;81;21573;-71
2021/05/01 05:31:10;;;;;;;47.78;33.75;;;;;;;6.91;77.03;100420.75;1738909;81;21617;-71
2021/05/01 05:33:37;;;;;;;52.03;34.40;;;;;;;6.92;77.03;100416.65;1730897;81;21145;-71
2021/05/01 05:36:04;;;;;;;51.65;34.33;;;;;;;6.92;77.04;100409.18;1730398;81;21174;-71
2021/05/01 05:38:30;;;;;;;52.48;34.40;;;;;;;6.91;77.04;100411.48;1728898;81;22079;-71
2021/05/01 05:40:56;;;;;;;50.25;35.23;;;;;;;6.93;77.08;100410.86;1728913;83;21177;-71
2021/05/01 05:43:22;;;;;;;56.92;36.53;;;;;;;6.95;77.07;100416.34;1728973;81;21125;-71
2021/05/01 05:45:49;;;;;;;56.53;35.98;;;;;;;7.01;77.06;100414.92;1728607;83;21169;-71
2021/05/01 05:48:15;;;;;;;53.83;36.77;;;;;;;7.05;77.09;100418.95;1729095;81;21590;-71
2021/05/01 05:50:41;;;;;;;60.55;39.03;;;;;;;7.07;77.06;100422.31;1729028;81;21233;-71
2021/05/01 05:53:07;;;;;;;54.60;35.03;;;;;;;7.13;77.08;100427.02;1729083;83;21145;-71
2021/05/01 05:55:34;;;;;;;54.40;36.13;;;;;;;7.14;77.05;100419.90;1729112;83;21171;-71
2021/05/01 05:58:00;;;;;;;57.50;37.95;;;;;;;7.13;77.07;100415.08;1729047;83;21165;-71
2021/05/01 06:00:27;;;;;;;53.98;36.45;;;;;;;7.17;77.09;100419.11;1729193;81;21487;-71
2021/05/01 06:02:53;;;;;;;57.60;35.20;;;;;;;7.20;77.08;100424.12;1728917;83;21603;-71
2021/05/01 06:05:32;;;;;;;56.20;38.20;;;;;;;7.23;77.10;100424.30;1720852;81;21649;-71
2021/05/01 06:07:59;;;;;;;60.58;39.80;;;;;;;7.24;77.10;100410.91;1716630;83;21205;-71
2021/05/01 06:10:26;;;;;;;56.08;39.58;;;;;;;7.28;77.07;100410.13;1716681;82;21153;-71
2021/05/01 06:12:53;;;;;;;54.45;36.17;;;;;;;7.35;77.08;100408.02;1716626;83;21138;-71
2021/05/01 06:15:19;;;;;;;57.17;38.60;;;;;;;7.32;77.05;100403.02;1716838;83;21314;-71
2021/05/01 06:17:49;;;;;;;55.15;37.58;;;;;;;7.42;77.08;100402.98;1716789;83;21075;-71
2021/05/01 06:20:16;;;;;;;48.13;35.38;;;;;;;7.50;77.09;100393.77;1713665;83;21122;-72
2021/05/01 06:22:42;;;;;;;53.55;34.08;;;;;;;7.60;77.08;100394.52;1716640;82;21626;-71
2021/05/01 06:25:11;;;;;;;49.65;34.30;;;;;;;7.65;77.07;100404.20;1716438;83;21185;-71
2021/05/01 06:27:39;;;;;;;55.63;35.43;;;;;;;7.72;77.04;100405.76;1716599;83;22089;-71
2021/05/01 06:30:08;;;;;;;51.30;35.10;;;;;;;7.80;77.03;100405.84;1716633;83;21177;-72
2021/05/01 06:32:34;;;;;;;47.70;33.45;;;;;;;7.92;77.01;100420.54;1716824;83;21123;-71
2021/05/01 06:35:01;;;;;;;51.48;33.80;;;;;;;7.96;76.98;100428.05;1716751;83;21611;-71
2021/05/01 06:37:28;;;;;;;56.63;37.20;;;;;;;7.91;76.96;100426.86;1690026;83;21174;-71
2021/05/01 06:39:58;;;;;;;49.33;33.50;;;;;;;7.89;76.94;100432.80;1716802;83;21194;-71
2021/05/01 06:42:29;;;;;;;49.13;33.35;;;;;;;7.95;76.92;100437.52;1716377;83;21189;-71
2021/05/01 06:45:12;;;;;;;52.65;35.55;;;;;;;7.99;76.90;100436.20;1716731;82;21121;-71
2021/05/01 06:47:49;;;;;;;50.70;35.58;;;;;;;8.04;76.89;100428.14;1716665;83;21207;-71
2021/05/01 06:50:16;;;;;;;47.23;33.35;;;;;;;8.12;76.82;100416.75;1716583;82;21598;-71
2021/05/01 06:52:45;;;;;;;53.48;37.88;;;;;;;8.16;76.74;100420.78;1716614;83;22009;-71
2021/05/01 06:55:13;;;;;;;46.10;32.17;;;;;;;8.25;76.71;100415.02;1716545;83;21221;-71
2021/05/01 06:57:48;;;;;;;48.87;33.13;;;;;;;8.27;76.65;100409.87;1716797;83;21154;-71
2021/05/01 07:00:17;;;;;;;43.92;31.87;;;;;;;8.29;76.61;100411.94;1716650;83;21142;-71
2021/05/01 07:02:45;;;;;;;47.20;33.83;;;;;;;8.34;76.60;100418.93;1716636;83;21106;-71
2021/05/01 07:05:17;;;;;;;46.40;34.67;;;;;;;8.41;76.52;100414.66;1722646;81;21146;-71
2021/05/01 07:07:43;;;;;;;44.00;31.25;;;;;;;8.43;76.46;100407.39;1728161;81;21185;-71
2021/05/01 07:10:10;;;;;;;50.15;32.85;;;;;;;8.47;76.40;100400.77;1698080;83;21622;-71
2021/05/01 07:12:37;;;;;;;41.53;30.82;;;;;;;8.49;76.32;100404.09;1728931;83;21150;-71
2021/05/01 07:15:09;;;;;;;64.80;43.98;;;;;;;8.50;76.28;100410.25;1729123;83;21567;-71
2021/05/01 07:17:36;;;;;;;44.58;31.95;;;;;;;8.48;76.18;100415.70;1729118;83;21264;-71
2021/05/01 07:20:04;;;;;;;41.58;31.42;;;;;;;8.49;76.15;100415.22;1728938;83;21574;-71
2021/05/01 07:22:30;;;;;;;44.25;30.32;;;;;;;8.52;76.10;100421.05;1729117;83;21646;-71
2021/05/01 07:25:00;;;;;;;45.08;30.70;;;;;;;8.66;76.04;100424.95;1728861;81;21601;-71
2021/05/01 07:27:47;;;;;;;43.90;29.63;;;;;;;8.77;75.93;100425.19;1729478;83;21177;-71
2021/05/01 07:30:17;;;;;;;39.58;28.45;;;;;;;8.83;75.90;100421.92;1728917;81;21278;-71
2021/05/01 07:32:43;;;;;;;41.33;30.00;;;;;;;8.76;75.78;100419.03;1729039;83;21194;-71
2021/05/01 07:35:10;;;;;;;40.90;29.77;;;;;;;8.72;75.70;100411.55;1729037;83;21189;-71
2021/05/01 07:37:38;;;;;;;40.85;28.40;;;;;;;8.79;75.67;100409.92;1728914;81;21137;-71
2021/05/01 07:40:11;;;;;;;38.23;29.15;;;;;;;8.88;75.57;100404.98;1729277;83;21064;-71
2021/05/01 07:42:39;;;;;;;40.75;29.52;;;;;;;8.93;75.47;100410.17;1728944;83;21221;-71
2021/05/01 07:45:07;;;;;;;41.77;29.87;;;;;;;8.96;75.37;100409.85;1729222;83;21209;-71
2021/05/01 07:47:33;;;;;;;39.60;28.65;;;;;;;9.03;75.27;100409.55;1728875;81;21129;-71
2021/05/01 07:50:00;;;;;;;36.60;27.27;;;;;;;9.12;75.14;100423.70;1729122;83;21626;-71
2021/05/01 07:52:30;;;;;;;32.93;25.15;;;;;;;9.15;75.08;100426.56;1729170;83;21090;-71
2021/05/01 07:54:54;;;;;;;35.25;25.25;;;;;;;9.21;74.98;100426.75;1728376;81;22087;-71
2021/05/01 07:57:21;;;;;;;28.95;22.13;;;;;;;9.21;74.89;100425.42;1729000;81;21567;-71
2021/05/01 07:59:47;;;;;;;32.95;22.62;;;;;;;9.22;74.77;100439.04;1728888;81;21153;-71
2021/05/01 08:02:13;;;;;;;36.00;25.88;;;;;;;9.16;74.65;100436.19;1728892;83;21188;-71
2021/05/01 08:04:40;;;;;;;31.95;25.23;;;;;;;9.18;74.61;100439.55;1727255;81;21152;-72
2021/05/01 08:07:06;;;;;;;35.60;24.87;;;;;;;9.16;74.49;100442.84;1690034;83;21920;-71
2021/05/01 08:09:33;;;;;;;37.98;26.97;;;;;;;9.16;74.43;100442.34;1716545;83;21620;-72
2021/05/01 08:11:59;;;;;;;37.63;25.80;;;;;;;9.09;74.29;100440.48;1716619;83;21595;-71
2021/05/01 08:14:26;;;;;;;37.88;28.17;;;;;;;9.05;74.20;100434.64;1716818;82;21543;-72
2021/05/01 08:16:52;;;;;;;36.48;26.95;;;;;;;8.99;74.14;100441.45;1716512;83;21587;-72
2021/05/01 08:19:19;;;;;;;40.40;27.67;;;;;;;8.95;74.04;100450.73;1716704;83;21213;-71
2021/05/01 08:21:45;;;;;;;34.48;24.95;;;;;;;8.93;73.95;100441.25;1716563;82;21157;-71
2021/05/01 08:24:11;;;;;;;32.20;24.72;;;;;;;8.97;73.89;100453.25;1716575;83;21568;-71
2021/05/01 08:26:39;;;;;;;36.28;26.15;;;;;;;9.06;73.80;100448.29;1716620;83;21154;-71
2021/05/01 08:29:05;;;;;;;40.12;26.65;;;;;;;9.03;73.73;100436.64;1716414;82;21167;-72
2021/05/01 08:31:31;;;;;;;36.35;25.62;;;;;;;8.97;73.67;100438.62;1716778;83;21205;-72
2021/05/01 08:33:58;;;;;;;37.45;26.45;;;;;;;9.01;73.62;100442.59;1716446;83;21630;-72
2021/05/01 08:36:25;;;;;;;44.20;28.80;;;;;;;9.12;73.58;100433.02;1717145;82;21184;-72
2021/05/01 08:38:52;;;;;;;38.75;26.52;;;;;;;9.14;73.50;100435.03;1734405;82;21142;-72
2021/05/01 08:41:18;;;;;;;38.05;27.80;;;;;;;9.22;73.41;100438.23;1716635;83;21169;-72
2021/05/01 08:43:44;;;;;;;43.28;30.40;;;;;;;9.16;73.31;100434.37;1708059;83;21306;-72
2021/05/01 08:46:14;;;;;;;39.60;28.92;;;;;;;9.12;73.24;100438.33;1701841;83;21167;-72
2021/05/01 08:48:44;;;;;;;43.70;31.97;;;;;;;9.08;73.19;100442.30;1688097;85;21153;-72
2021/05/01 08:51:10;;;;;;;37.23;27.10;;;;;;;9.08;73.13;100452.94;1702581;84;21171;-72
2021/05/01 08:53:36;;;;;;;54.33;37.75;;;;;;;9.08;73.07;100452.94;1697044;84;21191;-72
2021/05/01 08:56:03;;;;;;;34.55;26.12;;;;;;;9.09;73.00;100447.97;1713783;81;21204;-72
2021/05/01 08:58:30;;;;;;;37.10;27.45;;;;;;;9.14;72.94;100454.99;1696233;84;21156;-72
2021/05/01 09:00:56;;;;;;;38.35;29.30;;;;;;;9.22;72.94;100456.33;1702624;84;21160;-71
2021/05/01 09:03:23;;;;;;;35.80;27.20;;;;;;;9.27;72.87;100450.05;1702544;84;21163;-71
2021/05/01 09:05:52;;;;;;;54.30;34.95;;;;;;;9.31;72.83;100451.41;1721681;82;21152;-72
2021/05/01 09:08:19;;;;;;;38.92;27.90;;;;;;;9.34;72.73;100451.08;1742992;82;21206;-71
2021/05/01 09:10:48;;;;;;;37.73;29.52;;;;;;;9.31;72.60;100444.75;1742859;81;21089;-72
2021/05/01 09:13:22;;;;;;;44.27;33.88;;;;;;;9.31;72.57;100443.42;1739951;81;21119;-71
2021/05/01 09:16:03;;;;;;;47.88;37.00;;;;;;;9.32;72.53;100441.59;1748784;81;21163;-72
2021/05/01 09:18:50;;;;;;;43.60;35.10;;;;;;;9.27;72.39;100426.10;1748893;82;21159;-72
2021/05/01 09:21:28;;;;;;;41.73;31.00;;;;;;;9.28;72.35;100419.80;1744890;81;21200;-72
2021/05/01 09:23:54;;;;;;;35.98;29.05;;;;;;;9.39;72.33;100423.46;1756281;79;21184;-72
2021/05/01 09:26:39;;;;;;;42.95;31.80;;;;;;;9.39;72.22;100415.48;1743102;81;21107;-72
2021/05/01 09:29:05;;;;;;;37.03;27.27;;;;;;;9.37;72.16;100413.98;1732972;82;21168;-71
2021/05/01 09:31:43;;;;;;;40.60;28.05;;;;;;;9.34;72.13;100411.16;1728628;83;21607;-72
2021/05/01 09:34:10;;;;;;;38.40;27.30;;;;;;;9.32;72.08;100414.98;1756425;81;21259;-71
2021/05/01 09:36:36;;;;;;;557.77;237.15;;;;;;;9.24;72.03;100405.14;1731329;82;21077;-72
2021/05/01 09:39:07;;;;;;;313.23;130.40;;;;;;;9.21;72.00;100409.95;1736990;82;21132;-72
2021/05/01 09:41:40;;;;;;;66.25;36.23;;;;;;;9.09;71.93;100409.39;1738386;82;21624;-72
2021/05/01 09:44:17;;;;;;;468.63;220.30;;;;;;;9.10;71.93;100407.08;1727944;83;21144;-72
2021/05/01 09:46:47;;;;;;;138.65;67.32;;;;;;;9.08;71.89;100413.56;1747217;81;21264;-72
2021/05/01 09:49:17;;;;;;;51.83;34.27;;;;;;;9.04;71.82;100414.38;1758788;80;21101;-72
2021/05/01 09:51:59;;;;;;;42.78;29.55;;;;;;;9.02;71.79;100416.34;1763320;80;21132;-72
2021/05/01 09:54:30;;;;;;;107.10;48.90;;;;;;;9.10;71.79;100424.38;1764500;79;21195;-72
2021/05/01 09:57:07;;;;;;;534.42;205.70;;;;;;;9.09;71.76;100414.72;1765155;79;21128;-72
2021/05/01 09:59:48;;;;;;;362.72;136.15;;;;;;;9.05;71.70;100418.69;1726725;83;21196;-72
2021/05/01 10:02:20;;;;;;;478.27;197.20;;;;;;;9.03;71.67;100419.35;1726878;83;21072;-72
2021/05/01 10:05:05;;;;;;;153.95;66.25;;;;;;;9.01;71.66;100417.33;1726749;83;21139;-72
2021/05/01 10:07:33;;;;;;;42.35;27.95;;;;;;;9.03;71.64;100414.03;1695943;83;21145;-72
2021/05/01 10:10:00;;;;;;;62.33;34.27;;;;;;;9.07;71.62;100408.73;1694041;83;21139;-72
2021/05/01 10:12:38;;;;;;;255.07;108.15;;;;;;;9.11;71.62;100416.73;1726958;83;21214;-72
2021/05/01 10:15:18;;;;;;;121.90;60.30;;;;;;;9.15;71.61;100410.08;1726323;83;21084;-72
2021/05/01 10:17:46;;;;;;;40.83;28.32;;;;;;;9.22;71.61;100412.43;1726624;82;21139;-72
2021/05/01 10:20:12;;;;;;;42.95;30.43;;;;;;;9.19;71.61;100407.44;1726873;83;21561;-72
2021/05/01 10:22:45;;;;;;;34.83;26.15;;;;;;;9.16;71.56;100409.09;1726568;83;21506;-72
2021/05/01 10:25:26;;;;;;;34.60;25.45;;;;;;;9.16;71.53;100413.08;1726363;83;21278;-72
2021/05/01 10:30:52;;;;;;;52.83;36.45;;;;;;;9.09;71.49;100411.22;1804490;77;28612;-70
2021/05/01 10:33:31;;;;;;;90.30;50.73;;;;;;;9.04;71.50;100417.04;1797283;78;21124;-70
2021/05/01 10:36:23;;;;;;;69.95;42.23;;;;;;;8.96;71.56;100416.50;1797185;78;21418;-72
2021/05/01 10:39:02;;;;;;;34.18;24.70;;;;;;;8.98;71.61;100420.31;1814262;78;21156;-72
2021/05/01 10:41:31;;;;;;;44.63;31.45;;;;;;;9.00;71.58;100419.19;1808523;79;21470;-71
2021/05/01 10:43:57;;;;;;;37.98;26.42;;;;;;;9.01;71.60;100412.84;1792192;80;21239;-71
2021/05/01 10:46:29;;;;;;;33.35;24.07;;;;;;;8.96;71.65;100395.72;1792375;80;21089;-72
2021/05/01 10:49:02;;;;;;;32.25;24.40;;;;;;;8.94;71.65;100379.06;1781002;80;21214;-72
2021/05/01 10:51:46;;;;;;;29.90;22.70;;;;;;;9.00;71.70;100377.95;1780787;79;21150;-72
2021/05/01 10:54:17;;;;;;;38.98;25.37;;;;;;;9.14;71.69;100388.48;1787084;77;21131;-72
2021/05/01 10:56:51;;;;;;;32.53;21.50;;;;;;;9.25;71.69;100400.16;1804728;78;21104;-72
2021/05/01 10:59:23;;;;;;;30.40;20.10;;;;;;;9.27;71.67;100407.97;1819353;78;21624;-72
2021/05/01 11:01:51;;;;;;;26.35;19.92;;;;;;;9.37;71.69;100404.66;1818085;78;21159;-72
2021/05/01 11:04:31;;;;;;;25.05;18.87;;;;;;;9.47;71.70;100398.20;1820113;78;21199;-72
2021/05/01 11:07:12;;;;;;;28.00;19.20;;;;;;;9.58;71.64;100409.05;1797903;78;21191;-73
2021/05/01 11:09:46;;;;;;;24.63;18.82;;;;;;;9.59;71.55;100408.55;1766271;80;21592;-72
2021/05/01 11:12:16;;;;;;;25.92;18.42;;;;;;;9.58;71.54;100415.70;1776719;80;21587;-72
2021/05/01 11:14:50;;;;;;;;;;;;;;;9.56;71.48;100422.20;1764550;80;21822;-72
2021/05/01 11:17:36;;;;;;;26.73;20.35;;;;;;;9.58;71.46;100416.20;1784786;80;20736;-72
2021/05/01 11:20:13;;;;;;;21.73;17.02;;;;;;;9.49;71.36;100428.17;1751474;80;21598;-72
2021/05/01 11:22:42;;;;;;;27.73;20.62;;;;;;;9.43;71.32;100439.45;1740529;80;21167;-72
2021/05/01 11:25:14;;;;;;;24.57;16.42;;;;;;;9.39;71.29;100428.78;1749670;80;21141;-73
2021/05/01 11:27:42;;;;;;;23.20;17.23;;;;;;;9.38;71.24;100430.30;1735305;81;21195;-72